sensor_id;sensor_type;location;lat;lon;timestamp;pressure;altitude;pressure_sealevel;temperature;humidity
59367;BME280;45163;47.690;11.770;2023-11-21T00:01:24;92815.50;;;5.97;100.00
59367;BME280;45163;47.690;11.770;2023-11-21T00:03:50;92819.81;;;5.95;100.00
59367;BME280;45163;47.690;11.770;2023-11-21T00:06:17;92804.78;;;5.90;100.00
59367;BME280;45163;47.690;11.770;2023-11-21T00:08:43;92805.28;;;6.05;100.00
59367;BME280;45163;47.690;11.770;2023-11-21T00:11:09;92796.75;;;6.07;100.00
59367;BME280;45163;47.690;11.770;2023-11-21T00:13:35;92801.06;;;6.04;100.00
59367;BME280;45163;47.690;11.770;2023-11-21T00:16:01;92795.22;;;6.06;100.00
59367;BME280;45163;47.690;11.770;2023-11-21T00:18:27;92795.22;;;6.06;100.00
59367;BME280;45163;47.690;11.770;2023-11-21T00:20:53;92792.41;;;5.89;100.00
59367;BME280;45163;47.690;11.770;2023-11-21T00:23:19;92785.41;;;5.72;100.00
59367;BME280;45163;47.690;11.770;2023-11-21T00:25:45;92794.66;;;5.74;100.00
59367;BME280;45163;47.690;11.770;2023-11-21T00:28:11;92794.91;;;5.40;100.00
59367;BME280;45163;47.690;11.770;2023-11-21T00:30:37;92785.66;;;5.38;100.00
59367;BME280;45163;47.690;11.770;2023-11-21T00:33:03;92794.91;;;5.17;100.00
59367;BME280;45163;47.690;11.770;2023-11-21T00:35:30;92796.84;;;5.16;100.00
59367;BME280;45163;47.690;11.770;2023-11-21T00:37:56;92802.72;;;5.35;100.00
59367;BME280;45163;47.690;11.770;2023-11-21T00:40:23;92802.59;;;5.42;100.00
59367;BME280;45163;47.690;11.770;2023-11-21T00:42:49;92804.63;;;5.58;100.00
59367;BME280;45163;47.690;11.770;2023-11-21T00:45:15;92799.22;;;5.58;100.00
59367;BME280;45163;47.690;11.770;2023-11-21T00:47:41;92799.56;;;5.60;100.00
59367;BME280;45163;47.690;11.770;2023-11-21T00:50:08;92803.81;;;5.61;100.00
59367;BME280;45163;47.690;11.770;2023-11-21T00:52:35;92796.00;;;5.43;100.00
59367;BME280;45163;47.690;11.770;2023-11-21T00:55:02;92800.84;;;5.32;100.00
59367;BME280;45163;47.690;11.770;2023-11-21T00:57:29;92796.38;;;5.21;100.00
59367;BME280;45163;47.690;11.770;2023-11-21T00:59:55;92797.00;;;5.29;100.00
59367;BME280;45163;47.690;11.770;2023-11-21T01:02:21;92809.47;;;5.46;100.00
59367;BME280;45163;47.690;11.770;2023-11-21T01:04:47;92816.28;;;5.55;100.00
59367;BME280;45163;47.690;11.770;2023-11-21T01:07:13;92805.13;;;5.29;100.00
59367;BME280;45163;47.690;11.770;2023-11-21T01:09:39;92805.56;;;5.47;100.00
59367;BME280;45163;47.690;11.770;2023-11-21T01:12:05;92800.91;;;5.28;100.00
59367;BME280;45163;47.690;11.770;2023-11-21T01:14:32;92798.13;;;5.32;100.00
59367;BME280;45163;47.690;11.770;2023-11-21T01:16:58;92794.69;;;5.31;100.00
59367;BME280;45163;47.690;11.770;2023-11-21T01:19:24;92786.66;;;5.24;100.00
59367;BME280;45163;47.690;11.770;2023-11-21T01:21:50;92785.97;;;5.20;100.00
59367;BME280;45163;47.690;11.770;2023-11-21T01:24:17;92783.19;;;5.00;100.00
59367;BME280;45163;47.690;11.770;2023-11-21T01:26:43;92783.78;;;4.88;100.00
59367;BME280;45163;47.690;11.770;2023-11-21T01:29:13;92782.69;;;4.85;100.00
59367;BME280;45163;47.690;11.770;2023-11-21T01:31:40;92774.78;;;4.71;100.00
59367;BME280;45163;47.690;11.770;2023-11-21T01:34:07;92789.66;;;4.83;100.00
59367;BME280;45163;47.690;11.770;2023-11-21T01:36:33;92782.78;;;4.78;100.00
59367;BME280;45163;47.690;11.770;2023-11-21T01:38:59;92788.34;;;4.67;100.00
59367;BME280;45163;47.690;11.770;2023-11-21T01:41:26;92790.75;;;4.62;100.00
59367;BME280;45163;47.690;11.770;2023-11-21T01:43:56;92793.75;;;4.67;100.00
59367;BME280;45163;47.690;11.770;2023-11-21T01:46:23;92795.34;;;4.65;100.00
59367;BME280;45163;47.690;11.770;2023-11-21T01:48:50;92792.66;;;4.65;100.00
59367;BME280;45163;47.690;11.770;2023-11-21T01:51:16;92785.34;;;4.62;100.00
59367;BME280;45163;47.690;11.770;2023-11-21T01:53:43;92783.94;;;4.54;100.00
59367;BME280;45163;47.690;11.770;2023-11-21T01:56:10;92782.41;;;4.53;100.00
59367;BME280;45163;47.690;11.770;2023-11-21T01:58:36;92788.47;;;4.60;100.00
59367;BME280;45163;47.690;11.770;2023-11-21T02:01:02;92785.13;;;4.76;100.00
59367;BME280;45163;47.690;11.770;2023-11-21T02:03:28;92793.75;;;4.67;100.00
59367;BME280;45163;47.690;11.770;2023-11-21T02:05:54;92787.41;;;4.54;100.00
59367;BME280;45163;47.690;11.770;2023-11-21T02:08:20;92788.53;;;4.57;100.00
59367;BME280;45163;47.690;11.770;2023-11-21T02:10:46;92789.34;;;4.54;100.00
59367;BME280;45163;47.690;11.770;2023-11-21T02:13:13;92793.25;;;4.49;100.00
59367;BME280;45163;47.690;11.770;2023-11-21T02:15:39;92790.59;;;4.45;100.00
59367;BME280;45163;47.690;11.770;2023-11-21T02:18:05;92789.81;;;4.48;100.00
59367;BME280;45163;47.690;11.770;2023-11-21T02:20:32;92787.91;;;4.45;100.00
59367;BME280;45163;47.690;11.770;2023-11-21T02:23:00;92783.44;;;4.35;100.00
59367;BME280;45163;47.690;11.770;2023-11-21T02:25:32;92781.84;;;4.38;100.00
59367;BME280;45163;47.690;11.770;2023-11-21T02:28:02;92773.38;;;4.36;100.00
59367;BME280;45163;47.690;11.770;2023-11-21T02:30:29;92785.00;;;4.33;100.00
59367;BME280;45163;47.690;11.770;2023-11-21T02:32:57;92785.00;;;4.33;100.00
59367;BME280;45163;47.690;11.770;2023-11-21T02:35:24;92779.97;;;4.35;100.00
59367;BME280;45163;47.690;11.770;2023-11-21T02:37:52;92778.25;;;4.17;100.00
59367;BME280;45163;47.690;11.770;2023-11-21T02:40:18;92779.25;;;4.31;100.00
59367;BME280;45163;47.690;11.770;2023-11-21T02:42:46;92773.34;;;4.39;100.00
59367;BME280;45163;47.690;11.770;2023-11-21T02:45:17;92774.97;;;4.33;100.00
59367;BME280;45163;47.690;11.770;2023-11-21T02:47:44;92771.28;;;4.47;100.00
59367;BME280;45163;47.690;11.770;2023-11-21T02:50:11;92779.59;;;4.33;100.00
59367;BME280;45163;47.690;11.770;2023-11-21T02:52:37;92773.47;;;4.29;100.00
59367;BME280;45163;47.690;11.770;2023-11-21T02:55:04;92766.47;;;4.35;100.00
59367;BME280;45163;47.690;11.770;2023-11-21T02:57:30;92772.50;;;4.42;100.00
59367;BME280;45163;47.690;11.770;2023-11-21T02:59:56;92771.03;;;4.38;100.00
59367;BME280;45163;47.690;11.770;2023-11-21T03:02:22;92765.88;;;4.47;100.00
59367;BME280;45163;47.690;11.770;2023-11-21T03:04:48;92765.66;;;4.34;100.00
59367;BME280;45163;47.690;11.770;2023-11-21T03:07:15;92757.84;;;4.43;100.00
59367;BME280;45163;47.690;11.770;2023-11-21T03:09:41;92766.38;;;4.38;100.00
59367;BME280;45163;47.690;11.770;2023-11-21T03:12:08;92766.28;;;4.45;100.00
59367;BME280;45163;47.690;11.770;2023-11-21T03:14:34;92766.75;;;4.40;100.00
59367;BME280;45163;47.690;11.770;2023-11-21T03:17:00;92769.22;;;4.31;100.00
59367;BME280;45163;47.690;11.770;2023-11-21T03:19:26;92770.16;;;4.17;100.00
59367;BME280;45163;47.690;11.770;2023-11-21T03:21:52;92772.13;;;4.13;100.00
59367;BME280;45163;47.690;11.770;2023-11-21T03:24:19;92768.50;;;3.96;100.00
59367;BME280;45163;47.690;11.770;2023-11-21T03:26:46;92772.47;;;3.88;100.00
59367;BME280;45163;47.690;11.770;2023-11-21T03:29:12;92768.09;;;3.98;100.00
59367;BME280;45163;47.690;11.770;2023-11-21T03:31:39;92767.28;;;4.01;100.00
59367;BME280;45163;47.690;11.770;2023-11-21T03:34:05;92764.66;;;3.97;100.00
59367;BME280;45163;47.690;11.770;2023-11-21T03:36:32;92766.63;;;3.93;100.00
59367;BME280;45163;47.690;11.770;2023-11-21T03:38:57;92770.41;;;3.99;100.00
59367;BME280;45163;47.690;11.770;2023-11-21T03:41:23;92773.72;;;4.11;100.00
59367;BME280;45163;47.690;11.770;2023-11-21T03:43:50;92771.16;;;4.31;100.00
59367;BME280;45163;47.690;11.770;2023-11-21T03:46:15;92769.09;;;4.38;100.00
59367;BME280;45163;47.690;11.770;2023-11-21T03:48:41;92768.94;;;4.49;100.00
59367;BME280;45163;47.690;11.770;2023-11-21T03:51:07;92770.88;;;4.48;100.00
59367;BME280;45163;47.690;11.770;2023-11-21T03:53:33;92766.28;;;4.45;100.00
59367;BME280;45163;47.690;11.770;2023-11-21T03:56:02;92765.06;;;4.50;100.00
59367;BME280;45163;47.690;11.770;2023-11-21T03:58:29;92765.47;;;4.48;100.00
59367;BME280;45163;47.690;11.770;2023-11-21T04:00:55;92765.22;;;4.39;100.00
59367;BME280;45163;47.690;11.770;2023-11-21T04:03:21;92763.16;;;4.47;100.00
59367;BME280;45163;47.690;11.770;2023-11-21T04:05:47;92765.88;;;4.47;100.00
59367;BME280;45163;47.690;11.770;2023-11-21T04:08:13;92767.16;;;4.39;100.00
59367;BME280;45163;47.690;11.770;2023-11-21T04:10:40;92761.75;;;4.39;100.00
59367;BME280;45163;47.690;11.770;2023-11-21T04:13:06;92757.19;;;4.36;100.00
59367;BME280;45163;47.690;11.770;2023-11-21T04:15:32;92756.00;;;4.37;100.00
59367;BME280;45163;47.690;11.770;2023-11-21T04:17:58;92753.63;;;4.39;100.00
59367;BME280;45163;47.690;11.770;2023-11-21T04:20:24;92757.00;;;4.46;100.00
59367;BME280;45163;47.690;11.770;2023-11-21T04:22:51;92755.66;;;4.35;100.00
59367;BME280;45163;47.690;11.770;2023-11-21T04:25:17;92760.97;;;4.38;100.00
59367;BME280;45163;47.690;11.770;2023-11-21T04:27:44;92763.16;;;4.47;100.00
59367;BME280;45163;47.690;11.770;2023-11-21T04:30:13;92753.84;;;4.52;100.00
59367;BME280;45163;47.690;11.770;2023-11-21T04:32:40;92764.00;;;4.44;100.00
59367;BME280;45163;47.690;11.770;2023-11-21T04:35:06;92754.78;;;4.41;100.00
59367;BME280;45163;47.690;11.770;2023-11-21T04:37:32;92753.28;;;4.37;100.00
59367;BME280;45163;47.690;11.770;2023-11-21T04:39:58;92748.91;;;4.46;100.00
59367;BME280;45163;47.690;11.770;2023-11-21T04:42:24;92753.50;;;4.49;100.00
59367;BME280;45163;47.690;11.770;2023-11-21T04:44:50;92758.47;;;4.51;100.00
59367;BME280;45163;47.690;11.770;2023-11-21T04:47:18;92759.69;;;4.46;100.00
59367;BME280;45163;47.690;11.770;2023-11-21T04:49:46;92752.34;;;4.47;100.00
59367;BME280;45163;47.690;11.770;2023-11-21T04:52:15;92762.56;;;4.36;100.00
59367;BME280;45163;47.690;11.770;2023-11-21T04:54:41;92761.81;;;4.35;100.00
59367;BME280;45163;47.690;11.770;2023-11-21T04:57:07;92763.81;;;4.31;100.00
59367;BME280;45163;47.690;11.770;2023-11-21T04:59:34;92760.59;;;4.40;100.00
59367;BME280;45163;47.690;11.770;2023-11-21T05:02:00;92767.22;;;4.35;100.00
59367;BME280;45163;47.690;11.770;2023-11-21T05:04:26;92767.50;;;4.41;100.00
59367;BME280;45163;47.690;11.770;2023-11-21T05:06:52;92775.91;;;4.46;100.00
59367;BME280;45163;47.690;11.770;2023-11-21T05:09:18;92773.25;;;4.43;100.00
59367;BME280;45163;47.690;11.770;2023-11-21T05:11:44;92775.56;;;4.44;100.00
59367;BME280;45163;47.690;11.770;2023-11-21T05:14:10;92775.25;;;4.39;100.00
59367;BME280;45163;47.690;11.770;2023-11-21T05:16:37;92775.88;;;4.50;100.00
59367;BME280;45163;47.690;11.770;2023-11-21T05:19:03;92775.25;;;4.39;100.00
59367;BME280;45163;47.690;11.770;2023-11-21T05:21:30;92777.09;;;4.45;100.00
59367;BME280;45163;47.690;11.770;2023-11-21T05:23:59;92782.28;;;4.60;100.00
59367;BME280;45163;47.690;11.770;2023-11-21T05:26:25;92778.22;;;4.48;100.00
59367;BME280;45163;47.690;11.770;2023-11-21T05:28:51;92778.56;;;4.50;100.00
59367;BME280;45163;47.690;11.770;2023-11-21T05:31:17;92776.28;;;4.48;100.00
59367;BME280;45163;47.690;11.770;2023-11-21T05:33:44;92777.19;;;4.38;100.00
59367;BME280;45163;47.690;11.770;2023-11-21T05:36:10;92779.72;;;4.22;100.00
59367;BME280;45163;47.690;11.770;2023-11-21T05:38:36;92786.84;;;4.39;100.00
59367;BME280;45163;47.690;11.770;2023-11-21T05:41:03;92790.09;;;4.54;100.00
59367;BME280;45163;47.690;11.770;2023-11-21T05:43:30;92789.75;;;4.52;100.00
59367;BME280;45163;47.690;11.770;2023-11-21T05:45:58;92792.91;;;4.47;100.00
59367;BME280;45163;47.690;11.770;2023-11-21T05:48:24;92793.53;;;4.31;100.00
59367;BME280;45163;47.690;11.770;2023-11-21T05:50:51;92787.94;;;4.42;100.00
59367;BME280;45163;47.690;11.770;2023-11-21T05:53:17;92790.31;;;4.40;100.00
59367;BME280;45163;47.690;11.770;2023-11-21T05:55:43;92799.91;;;4.44;100.00
59367;BME280;45163;47.690;11.770;2023-11-21T05:58:09;92802.63;;;4.41;100.00
59367;BME280;45163;47.690;11.770;2023-11-21T06:00:36;92807.34;;;4.37;100.00
59367;BME280;45163;47.690;11.770;2023-11-21T06:03:02;92810.78;;;4.37;100.00
59367;BME280;45163;47.690;11.770;2023-11-21T06:05:28;92812.56;;;4.20;100.00
59367;BME280;45163;47.690;11.770;2023-11-21T06:07:55;92809.47;;;4.49;100.00
59367;BME280;45163;47.690;11.770;2023-11-21T06:10:25;92811.81;;;4.47;100.00
59367;BME280;45163;47.690;11.770;2023-11-21T06:12:52;92817.50;;;4.56;100.00
59367;BME280;45163;47.690;11.770;2023-11-21T06:15:18;92818.75;;;4.48;100.00
59367;BME280;45163;47.690;11.770;2023-11-21T06:17:48;92820.34;;;4.45;100.00
59367;BME280;45163;47.690;11.770;2023-11-21T06:20:21;92834.00;;;4.35;100.00
59367;BME280;45163;47.690;11.770;2023-11-21T06:22:49;92831.06;;;4.53;100.00
59367;BME280;45163;47.690;11.770;2023-11-21T06:25:18;92834.22;;;4.74;100.00
59367;BME280;45163;47.690;11.770;2023-11-21T06:27:46;92831.44;;;4.78;100.00
59367;BME280;45163;47.690;11.770;2023-11-21T06:30:14;92831.50;;;4.74;100.00
59367;BME280;45163;47.690;11.770;2023-11-21T06:32:41;92834.81;;;4.86;100.00
59367;BME280;45163;47.690;11.770;2023-11-21T06:35:08;92832.00;;;4.93;100.00
59367;BME280;45163;47.690;11.770;2023-11-21T06:37:35;92826.19;;;4.94;100.00
59367;BME280;45163;47.690;11.770;2023-11-21T06:40:02;92840.00;;;5.00;100.00
59367;BME280;45163;47.690;11.770;2023-11-21T06:42:30;92824.28;;;4.91;100.00
59367;BME280;45163;47.690;11.770;2023-11-21T06:44:56;92830.50;;;4.88;100.00
59367;BME280;45163;47.690;11.770;2023-11-21T06:47:23;92830.47;;;4.92;100.00
59367;BME280;45163;47.690;11.770;2023-11-21T06:49:53;92827.72;;;5.19;100.00
59367;BME280;45163;47.690;11.770;2023-11-21T06:52:19;92824.00;;;5.09;100.00
59367;BME280;45163;47.690;11.770;2023-11-21T06:54:47;92826.28;;;4.87;100.00
59367;BME280;45163;47.690;11.770;2023-11-21T06:57:13;92833.94;;;4.92;100.00
59367;BME280;45163;47.690;11.770;2023-11-21T06:59:39;92832.34;;;4.95;100.00
59367;BME280;45163;47.690;11.770;2023-11-21T07:02:06;92836.06;;;5.05;100.00
59367;BME280;45163;47.690;11.770;2023-11-21T07:04:38;92837.00;;;4.94;100.00
59367;BME280;45163;47.690;11.770;2023-11-21T07:07:04;92849.63;;;5.01;100.00
59367;BME280;45163;47.690;11.770;2023-11-21T07:09:30;92844.41;;;4.90;100.00
59367;BME280;45163;47.690;11.770;2023-11-21T07:11:56;92838.38;;;4.79;100.00
59367;BME280;45163;47.690;11.770;2023-11-21T07:14:23;92844.03;;;4.88;100.00
59367;BME280;45163;47.690;11.770;2023-11-21T07:16:49;92842.09;;;4.89;100.00
59367;BME280;45163;47.690;11.770;2023-11-21T07:19:15;92850.53;;;4.94;100.00
59367;BME280;45163;47.690;11.770;2023-11-21T07:21:41;92846.63;;;4.95;100.00
59367;BME280;45163;47.690;11.770;2023-11-21T07:24:07;92839.38;;;4.89;100.00
59367;BME280;45163;47.690;11.770;2023-11-21T07:26:34;92843.50;;;4.97;100.00
59367;BME280;45163;47.690;11.770;2023-11-21T07:29:02;92849.59;;;5.05;100.00
59367;BME280;45163;47.690;11.770;2023-11-21T07:31:29;92849.94;;;5.07;100.00
59367;BME280;45163;47.690;11.770;2023-11-21T07:33:55;92841.59;;;5.21;100.00
59367;BME280;45163;47.690;11.770;2023-11-21T07:36:24;92841.84;;;5.30;100.00
59367;BME280;45163;47.690;11.770;2023-11-21T07:38:50;92844.00;;;5.39;100.00
59367;BME280;45163;47.690;11.770;2023-11-21T07:41:17;92836.41;;;5.54;100.00
59367;BME280;45163;47.690;11.770;2023-11-21T07:43:46;92838.75;;;5.52;100.00
59367;BME280;45163;47.690;11.770;2023-11-21T07:46:13;92844.63;;;5.70;100.00
59367;BME280;45163;47.690;11.770;2023-11-21T07:48:40;92847.25;;;5.54;100.00
59367;BME280;45163;47.690;11.770;2023-11-21T07:51:08;92844.16;;;5.52;100.00
59367;BME280;45163;47.690;11.770;2023-11-21T07:53:35;92841.44;;;5.75;100.00
59367;BME280;45163;47.690;11.770;2023-11-21T07:56:06;92839.81;;;6.01;100.00
59367;BME280;45163;47.690;11.770;2023-11-21T07:58:36;92832.88;;;6.00;100.00
59367;BME280;45163;47.690;11.770;2023-11-21T08:01:03;92842.09;;;5.83;100.00
59367;BME280;45163;47.690;11.770;2023-11-21T08:03:29;92839.41;;;6.03;100.00
59367;BME280;45163;47.690;11.770;2023-11-21T08:05:56;92832.19;;;6.16;100.00
59367;BME280;45163;47.690;11.770;2023-11-21T08:08:23;92827.47;;;6.20;100.00
59367;BME280;45163;47.690;11.770;2023-11-21T08:10:50;92835.16;;;6.02;100.00
59367;BME280;45163;47.690;11.770;2023-11-21T08:13:26;92843.59;;;6.07;100.00
59367;BME280;45163;47.690;11.770;2023-11-21T08:15:55;92829.13;;;6.14;100.00
59367;BME280;45163;47.690;11.770;2023-11-21T08:18:22;92829.34;;;6.03;100.00
59367;BME280;45163;47.690;11.770;2023-11-21T08:20:48;92832.59;;;5.94;100.00
59367;BME280;45163;47.690;11.770;2023-11-21T08:23:18;92838.88;;;5.88;100.00
59367;BME280;45163;47.690;11.770;2023-11-21T08:25:44;92842.72;;;5.90;100.00
59367;BME280;45163;47.690;11.770;2023-11-21T08:28:11;92843.22;;;5.85;100.00
59367;BME280;45163;47.690;11.770;2023-11-21T08:30:38;92834.34;;;6.05;100.00
59367;BME280;45163;47.690;11.770;2023-11-21T08:33:04;92841.84;;;6.17;100.00
59367;BME280;45163;47.690;11.770;2023-11-21T08:35:31;92846.88;;;6.35;100.00
59367;BME280;45163;47.690;11.770;2023-11-21T08:37:57;92850.84;;;6.30;100.00
59367;BME280;45163;47.690;11.770;2023-11-21T08:40:23;92848.13;;;6.50;100.00
59367;BME280;45163;47.690;11.770;2023-11-21T08:42:49;92848.25;;;6.63;100.00
59367;BME280;45163;47.690;11.770;2023-11-21T08:45:18;92848.25;;;6.63;100.00
59367;BME280;45163;47.690;11.770;2023-11-21T08:47:44;92847.75;;;6.68;100.00
59367;BME280;45163;47.690;11.770;2023-11-21T08:50:11;92855.00;;;6.91;100.00
59367;BME280;45163;47.690;11.770;2023-11-21T08:52:38;92852.63;;;6.93;100.00
59367;BME280;45163;47.690;11.770;2023-11-21T08:55:05;92860.75;;;6.93;100.00
59367;BME280;45163;47.690;11.770;2023-11-21T08:57:34;92849.81;;;6.80;100.00
59367;BME280;45163;47.690;11.770;2023-11-21T09:00:02;92851.31;;;6.81;100.00
59367;BME280;45163;47.690;11.770;2023-11-21T09:02:28;92858.31;;;6.82;100.00
59367;BME280;45163;47.690;11.770;2023-11-21T09:04:54;92858.72;;;6.97;100.00
59367;BME280;45163;47.690;11.770;2023-11-21T09:07:20;92856.09;;;6.93;100.00
59367;BME280;45163;47.690;11.770;2023-11-21T09:09:47;92869.34;;;6.91;100.00
59367;BME280;45163;47.690;11.770;2023-11-21T09:12:14;92868.06;;;6.96;100.00
59367;BME280;45163;47.690;11.770;2023-11-21T09:14:40;92868.84;;;7.13;100.00
59367;BME280;45163;47.690;11.770;2023-11-21T09:17:09;92867.66;;;7.14;100.00
59367;BME280;45163;47.690;11.770;2023-11-21T09:19:40;92872.50;;;7.22;100.00
59367;BME280;45163;47.690;11.770;2023-11-21T09:22:06;92873.06;;;6.97;100.00
59367;BME280;45163;47.690;11.770;2023-11-21T09:24:33;92875.75;;;6.81;100.00
59367;BME280;45163;47.690;11.770;2023-11-21T09:27:00;92883.94;;;6.61;100.00
59367;BME280;45163;47.690;11.770;2023-11-21T09:29:27;92882.13;;;6.55;100.00
59367;BME280;45163;47.690;11.770;2023-11-21T09:31:53;92871.41;;;6.47;100.00
59367;BME280;45163;47.690;11.770;2023-11-21T09:34:23;92881.38;;;6.34;100.00
59367;BME280;45163;47.690;11.770;2023-11-21T09:36:49;92882.06;;;6.38;100.00
59367;BME280;45163;47.690;11.770;2023-11-21T09:39:15;92888.88;;;6.46;100.00
59367;BME280;45163;47.690;11.770;2023-11-21T09:41:49;92883.75;;;6.52;100.00
59367;BME280;45163;47.690;11.770;2023-11-21T09:44:18;92886.00;;;6.73;100.00
59367;BME280;45163;47.690;11.770;2023-11-21T09:46:47;92882.66;;;6.66;100.00
59367;BME280;45163;47.690;11.770;2023-11-21T09:49:23;92877.53;;;6.52;100.00
59367;BME280;45163;47.690;11.770;2023-11-21T09:51:54;92874.28;;;6.40;100.00
59367;BME280;45163;47.690;11.770;2023-11-21T09:54:21;92881.78;;;6.53;100.00
59367;BME280;45163;47.690;11.770;2023-11-21T09:56:48;92882.63;;;6.49;100.00
59367;BME280;45163;47.690;11.770;2023-11-21T09:59:16;92879.84;;;6.53;100.00
59367;BME280;45163;47.690;11.770;2023-11-21T10:01:42;92881.84;;;6.69;100.00
59367;BME280;45163;47.690;11.770;2023-11-21T10:04:09;92877.19;;;6.69;100.00
59367;BME280;45163;47.690;11.770;2023-11-21T10:06:41;92882.03;;;6.78;100.00
59367;BME280;45163;47.690;11.770;2023-11-21T10:09:12;92873.69;;;6.69;100.00
59367;BME280;45163;47.690;11.770;2023-11-21T10:11:43;92871.50;;;6.44;100.00
59367;BME280;45163;47.690;11.770;2023-11-21T10:14:12;92870.38;;;6.41;100.00
59367;BME280;45163;47.690;11.770;2023-11-21T10:16:40;92869.84;;;6.30;100.00
59367;BME280;45163;47.690;11.770;2023-11-21T10:19:10;92868.09;;;6.40;100.00
59367;BME280;45163;47.690;11.770;2023-11-21T10:21:39;92872.66;;;6.43;100.00
59367;BME280;45163;47.690;11.770;2023-11-21T10:24:06;92872.28;;;6.44;100.00
59367;BME280;45163;47.690;11.770;2023-11-21T10:26:33;92871.41;;;6.47;100.00
59367;BME280;45163;47.690;11.770;2023-11-21T10:29:02;92879.28;;;6.42;100.00
59367;BME280;45163;47.690;11.770;2023-11-21T10:31:31;92877.75;;;6.41;100.00
59367;BME280;45163;47.690;11.770;2023-11-21T10:34:20;92878.97;;;6.56;100.00
59367;BME280;45163;47.690;11.770;2023-11-21T10:36:46;92875.09;;;6.57;100.00
59367;BME280;45163;47.690;11.770;2023-11-21T10:39:19;92876.75;;;6.51;100.00
59367;BME280;45163;47.690;11.770;2023-11-21T10:41:47;92878.16;;;6.59;100.00
59367;BME280;45163;47.690;11.770;2023-11-21T10:44:17;92881.97;;;6.62;100.00
59367;BME280;45163;47.690;11.770;2023-11-21T10:46:55;92873.53;;;6.40;100.00
59367;BME280;45163;47.690;11.770;2023-11-21T10:49:27;92876.25;;;6.56;100.00
59367;BME280;45163;47.690;11.770;2023-11-21T10:51:53;92879.81;;;6.73;100.00
59367;BME280;45163;47.690;11.770;2023-11-21T10:54:20;92884.63;;;6.65;100.00
59367;BME280;45163;47.690;11.770;2023-11-21T10:56:49;92879.47;;;6.51;100.00
59367;BME280;45163;47.690;11.770;2023-11-21T10:59:17;92878.22;;;6.56;100.00
59367;BME280;45163;47.690;11.770;2023-11-21T11:01:47;92889.38;;;6.41;100.00
59367;BME280;45163;47.690;11.770;2023-11-21T11:04:18;92890.28;;;6.15;100.00
59367;BME280;45163;47.690;11.770;2023-11-21T11:06:46;92891.09;;;6.12;100.00
59367;BME280;45163;47.690;11.770;2023-11-21T11:09:17;92898.78;;;5.93;100.00
59367;BME280;45163;47.690;11.770;2023-11-21T11:11:43;92896.78;;;5.74;100.00
59367;BME280;45163;47.690;11.770;2023-11-21T11:14:11;92908.31;;;5.55;100.00
59367;BME280;45163;47.690;11.770;2023-11-21T11:16:38;92903.16;;;5.40;100.00
59367;BME280;45163;47.690;11.770;2023-11-21T11:19:07;92899.06;;;5.29;100.00
59367;BME280;45163;47.690;11.770;2023-11-21T11:24:13;92902.53;;;5.29;100.00
59367;BME280;45163;47.690;11.770;2023-11-21T11:35:34;92903.81;;;5.48;100.00
59367;BME280;45163;47.690;11.770;2023-11-21T11:38:04;92909.03;;;5.59;100.00
59367;BME280;45163;47.690;11.770;2023-11-21T11:41:01;92903.31;;;5.53;100.00
59367;BME280;45163;47.690;11.770;2023-11-21T11:43:28;92916.03;;;5.56;100.00
59367;BME280;45163;47.690;11.770;2023-11-21T11:45:58;92912.25;;;5.50;100.00
59367;BME280;45163;47.690;11.770;2023-11-21T11:48:29;92907.28;;;5.48;100.00
59367;BME280;45163;47.690;11.770;2023-11-21T11:53:39;92903.91;;;5.41;100.00
59367;BME280;45163;47.690;11.770;2023-11-21T11:56:29;92906.31;;;5.35;100.00
59367;BME280;45163;47.690;11.770;2023-11-21T11:59:02;92909.59;;;5.23;100.00
59367;BME280;45163;47.690;11.770;2023-11-21T12:01:32;92908.78;;;4.99;100.00
59367;BME280;45163;47.690;11.770;2023-11-21T12:06:51;92900.78;;;5.19;100.00
59367;BME280;45163;47.690;11.770;2023-11-21T12:09:19;92909.34;;;5.14;100.00
59367;BME280;45163;47.690;11.770;2023-11-21T12:11:48;92914.19;;;4.99;100.00
59367;BME280;45163;47.690;11.770;2023-11-21T12:14:15;92908.53;;;4.90;100.00
59367;BME280;45163;47.690;11.770;2023-11-21T12:16:42;92913.06;;;4.96;100.00
59367;BME280;45163;47.690;11.770;2023-11-21T12:19:10;92906.13;;;4.95;100.00
59367;BME280;45163;47.690;11.770;2023-11-21T12:21:36;92905.50;;;4.84;100.00
59367;BME280;45163;47.690;11.770;2023-11-21T12:24:03;92909.91;;;4.74;100.00
59367;BME280;45163;47.690;11.770;2023-11-21T12:26:29;92918.00;;;4.74;100.00
59367;BME280;45163;47.690;11.770;2023-11-21T12:28:56;92919.91;;;4.78;100.00
59367;BME280;45163;47.690;11.770;2023-11-21T12:31:23;92920.72;;;4.74;100.00
59367;BME280;45163;47.690;11.770;2023-11-21T12:33:49;92918.28;;;4.84;100.00
59367;BME280;45163;47.690;11.770;2023-11-21T12:36:16;92921.59;;;4.95;100.00
59367;BME280;45163;47.690;11.770;2023-11-21T12:38:43;92922.63;;;5.05;100.00
59367;BME280;45163;47.690;11.770;2023-11-21T12:41:12;92917.19;;;5.05;100.00
59367;BME280;45163;47.690;11.770;2023-11-21T12:43:38;92915.16;;;5.12;100.00
59367;BME280;45163;47.690;11.770;2023-11-21T12:46:09;92912.13;;;5.10;100.00
59367;BME280;45163;47.690;11.770;2023-11-21T12:48:39;92917.06;;;5.39;100.00
59367;BME280;45163;47.690;11.770;2023-11-21T12:51:10;92918.31;;;5.34;100.00
59367;BME280;45163;47.690;11.770;2023-11-21T12:53:40;92915.59;;;5.34;100.00
59367;BME280;45163;47.690;11.770;2023-11-21T12:56:11;92919.34;;;5.17;100.00
59367;BME280;45163;47.690;11.770;2023-11-21T12:58:44;92918.13;;;5.21;100.00
59367;BME280;45163;47.690;11.770;2023-11-21T13:01:13;92913.13;;;4.93;100.00
59367;BME280;45163;47.690;11.770;2023-11-21T13:03:47;92919.16;;;5.31;100.00
59367;BME280;45163;47.690;11.770;2023-11-21T13:06:18;92918.78;;;5.29;100.00
59367;BME280;45163;47.690;11.770;2023-11-21T13:08:45;92914.25;;;5.46;100.00